Time;durP1;ratioP1;P1;durP2;ratioP2;P2;SDS_P1;SDS_P2;PMS_P1;PMS_P2;Temp;Humidity;BMP_temperature;BMP_pressure;BME280_temperature;BME280_humidity;BME280_pressure;Samples;Min_cycle;Max_cycle;Signal;HPM_P1;HPM_P2
2024/01/01 00:00:46;;;;;;;303.70;147.77;;;4.50;99.90;;;;;;4998112;28;20030;-53
2024/01/01 00:03:12;;;;;;;312.10;153.30;;;4.60;99.90;;;;;;4997939;28;20057;-53
2024/01/01 00:05:38;;;;;;;308.33;149.27;;;4.60;99.90;;;;;;4997777;28;20037;-53
2024/01/01 00:08:04;;;;;;;315.80;150.00;;;4.60;99.90;;;;;;4997853;28;20049;-53
2024/01/01 00:10:30;;;;;;;315.85;153.95;;;4.60;99.90;;;;;;4997781;28;20491;-53
2024/01/01 00:12:56;;;;;;;324.23;155.05;;;4.70;99.90;;;;;;4997891;28;20059;-53
2024/01/01 00:15:21;;;;;;;312.15;150.30;;;4.70;99.90;;;;;;4997557;28;20379;-53
2024/01/01 00:17:47;;;;;;;296.13;144.57;;;4.80;99.90;;;;;;4997460;28;20063;-53
2024/01/01 00:20:13;;;;;;;292.40;140.50;;;4.80;99.90;;;;;;4997860;28;20174;-53
2024/01/01 00:22:41;;;;;;;288.85;140.77;;;4.80;99.90;;;;;;4997705;28;20051;-53
2024/01/01 00:25:07;;;;;;;299.13;143.25;;;4.80;99.90;;;;;;4997541;28;20023;-53
2024/01/01 00:27:34;;;;;;;287.50;137.93;;;4.90;99.90;;;;;;4997431;28;20532;-53
2024/01/01 00:30:01;;;;;;;275.05;129.55;;;4.90;99.90;;;;;;4997276;28;20038;-53
2024/01/01 00:32:27;;;;;;;270.05;127.93;;;5.00;99.90;;;;;;4997308;28;20037;-53
2024/01/01 00:34:53;;;;;;;263.02;125.30;;;5.10;99.90;;;;;;4996113;28;20061;-52
2024/01/01 00:37:19;;;;;;;240.75;117.35;;;5.10;99.90;;;;;;4995821;28;20038;-53
2024/01/01 00:39:45;;;;;;;202.18;102.35;;;5.20;99.90;;;;;;4995944;28;20041;-53
2024/01/01 00:42:11;;;;;;;211.23;101.32;;;5.20;99.90;;;;;;4997277;28;20030;-53
2024/01/01 00:44:38;;;;;;;223.35;109.43;;;5.30;99.90;;;;;;4997170;28;20073;-53
2024/01/01 00:47:04;;;;;;;230.90;110.57;;;5.30;99.90;;;;;;4997119;28;20018;-53
2024/01/01 00:49:30;;;;;;;211.98;105.20;;;5.30;99.90;;;;;;4997125;28;20160;-53
2024/01/01 00:51:56;;;;;;;217.27;104.93;;;5.30;99.90;;;;;;4996968;28;20045;-53
2024/01/01 00:54:24;;;;;;;224.90;105.07;;;5.40;99.90;;;;;;4997210;28;20081;-53
2024/01/01 00:56:54;;;;;;;202.93;101.40;;;5.40;99.90;;;;;;4996950;28;20034;-53
2024/01/01 00:59:20;;;;;;;196.25;98.68;;;5.40;99.90;;;;;;4997557;28;20030;-53
2024/01/01 01:01:46;;;;;;;199.82;101.22;;;5.40;99.90;;;;;;4995488;28;20038;-53
2024/01/01 01:04:12;;;;;;;220.85;106.90;;;5.50;99.90;;;;;;4995445;28;20053;-53
2024/01/01 01:06:38;;;;;;;195.52;101.60;;;5.50;99.90;;;;;;4995536;28;20032;-53
2024/01/01 01:09:04;;;;;;;203.80;104.10;;;5.40;99.90;;;;;;4995483;28;20392;-53
2024/01/01 01:11:30;;;;;;;210.52;106.40;;;5.40;99.90;;;;;;4995443;28;20022;-52
2024/01/01 01:13:56;;;;;;;198.55;101.72;;;5.40;99.90;;;;;;4995407;28;20089;-53
2024/01/01 01:16:23;;;;;;;208.93;106.07;;;5.30;99.90;;;;;;4995174;28;20038;-53
2024/01/01 01:18:49;;;;;;;217.98;106.53;;;5.30;99.90;;;;;;4995316;28;20026;-53
2024/01/01 01:21:15;;;;;;;217.40;105.57;;;5.20;99.90;;;;;;4996585;28;20379;-53
2024/01/01 01:23:42;;;;;;;219.65;104.82;;;5.30;99.90;;;;;;4996533;28;20545;-53
2024/01/01 01:26:08;;;;;;;229.27;110.18;;;5.20;99.90;;;;;;4996365;28;20050;-53
2024/01/01 01:28:34;;;;;;;215.35;106.70;;;5.00;99.90;;;;;;4995111;28;20030;-53
2024/01/01 01:31:03;;;;;;;203.88;101.65;;;5.10;99.90;;;;;;4996371;28;20493;-53
2024/01/01 01:33:29;;;;;;;163.15;81.05;;;5.10;99.90;;;;;;4996324;28;20058;-53
2024/01/01 01:35:55;;;;;;;161.68;78.53;;;5.20;99.90;;;;;;4996003;28;20073;-52
2024/01/01 01:38:23;;;;;;;154.77;76.93;;;5.30;99.90;;;;;;4996154;28;20023;-53
2024/01/01 01:40:49;;;;;;;156.88;76.20;;;5.30;99.90;;;;;;4994839;28;20074;-53
2024/01/01 01:43:23;;;;;;;129.65;65.35;;;5.20;99.90;;;;;;4994909;28;20027;-53
2024/01/01 01:45:51;;;;;;;144.10;67.82;;;5.40;99.90;;;;;;4994804;28;20472;-53
2024/01/01 01:48:18;;;;;;;152.68;74.95;;;5.40;99.90;;;;;;4995007;28;20050;-53
2024/01/01 01:50:48;;;;;;;162.63;80.30;;;5.50;99.90;;;;;;4996395;28;20026;-53
2024/01/01 01:53:15;;;;;;;184.60;88.05;;;5.50;99.90;;;;;;4995991;28;20365;-53
2024/01/01 01:55:43;;;;;;;201.65;93.15;;;5.50;99.90;;;;;;4994817;28;20034;-53
2024/01/01 01:58:10;;;;;;;187.50;90.82;;;5.50;99.90;;;;;;4994823;28;20100;-53
2024/01/01 02:00:37;;;;;;;190.93;90.28;;;5.40;99.90;;;;;;4994772;28;20060;-53
2024/01/01 02:03:06;;;;;;;192.88;95.35;;;5.30;99.90;;;;;;4995994;28;20041;-52
2024/01/01 02:05:32;;;;;;;199.15;100.07;;;5.40;99.90;;;;;;4995970;28;20069;-53
2024/01/01 02:07:59;;;;;;;167.75;82.85;;;5.20;99.90;;;;;;4994782;28;20027;-53
2024/01/01 02:10:26;;;;;;;178.73;89.35;;;5.30;99.90;;;;;;4996004;28;20026;-53
2024/01/01 02:12:52;;;;;;;167.77;87.57;;;5.30;99.90;;;;;;4994007;28;20034;-53
2024/01/01 02:15:20;;;;;;;196.02;96.38;;;5.30;99.90;;;;;;4994894;28;20045;-53
2024/01/01 02:17:46;;;;;;;234.32;105.72;;;5.30;99.90;;;;;;4995855;28;20117;-53
2024/01/01 02:20:12;;;;;;;183.50;94.97;;;5.30;99.90;;;;;;4995922;28;20077;-53
2024/01/01 02:22:39;;;;;;;204.80;100.40;;;5.30;99.90;;;;;;4994582;28;20038;-53
2024/01/01 02:25:08;;;;;;;302.38;127.78;;;5.40;99.90;;;;;;4994547;28;20037;-53
2024/01/01 02:27:38;;;;;;;248.30;109.70;;;5.30;99.90;;;;;;4994409;28;20121;-53
2024/01/01 02:30:10;;;;;;;208.43;100.07;;;5.30;99.90;;;;;;4995930;28;20029;-53
2024/01/01 02:32:39;;;;;;;210.73;100.65;;;5.40;99.90;;;;;;4995909;28;20034;-53
2024/01/01 02:35:08;;;;;;;230.50;108.97;;;5.40;99.90;;;;;;4996003;28;20038;-53
2024/01/01 02:37:35;;;;;;;255.05;109.38;;;5.40;99.90;;;;;;4995583;28;20029;-52
2024/01/01 02:40:02;;;;;;;263.42;112.45;;;5.40;99.90;;;;;;4995804;28;20033;-53
2024/01/01 02:42:29;;;;;;;242.25;104.72;;;5.50;99.90;;;;;;4995679;28;20085;-53
2024/01/01 02:44:55;;;;;;;248.18;106.30;;;5.50;99.90;;;;;;4994429;28;20050;-53
2024/01/01 02:47:21;;;;;;;239.15;99.63;;;5.50;99.90;;;;;;4996619;28;20030;-53
2024/01/01 02:49:47;;;;;;;235.75;101.53;;;5.60;99.90;;;;;;4998109;28;20030;-53
2024/01/01 02:52:13;;;;;;;216.73;99.53;;;5.60;99.90;;;;;;4997989;28;20030;-53
2024/01/01 02:54:39;;;;;;;238.38;105.53;;;5.60;99.90;;;;;;4997748;28;20065;-53
2024/01/01 02:57:05;;;;;;;211.63;97.50;;;5.70;99.90;;;;;;4997952;28;20100;-53
2024/01/01 02:59:33;;;;;;;205.27;97.85;;;5.70;99.90;;;;;;4999242;28;20445;-53
2024/01/01 03:01:59;;;;;;;247.60;105.53;;;5.70;99.90;;;;;;4997772;28;20080;-53
2024/01/01 03:04:28;;;;;;;306.40;115.45;;;5.70;99.90;;;;;;4997660;28;20362;-53
2024/01/01 03:06:54;;;;;;;257.55;107.40;;;5.70;99.90;;;;;;4997776;28;20040;-53
2024/01/01 03:09:20;;;;;;;235.30;102.25;;;5.70;99.90;;;;;;4997625;28;20129;-52
2024/01/01 03:11:46;;;;;;;194.57;91.70;;;5.70;99.90;;;;;;4998967;28;20065;-53
2024/01/01 03:14:12;;;;;;;259.95;105.97;;;5.70;99.90;;;;;;4997648;28;20022;-53
2024/01/01 03:16:38;;;;;;;244.38;99.55;;;5.70;99.90;;;;;;4997396;28;20084;-53
2024/01/01 03:19:04;;;;;;;274.27;109.22;;;5.80;99.90;;;;;;4997516;28;20026;-53
2024/01/01 03:21:30;;;;;;;280.67;114.07;;;5.70;99.90;;;;;;4997524;28;20039;-53
2024/01/01 03:23:56;;;;;;;244.32;100.22;;;5.80;99.90;;;;;;4998807;28;20030;-53
2024/01/01 03:26:22;;;;;;;231.57;98.85;;;5.70;99.90;;;;;;4998586;28;20113;-53
2024/01/01 03:28:48;;;;;;;185.05;80.70;;;5.80;99.90;;;;;;4998469;28;20058;-53
2024/01/01 03:31:14;;;;;;;173.38;79.20;;;5.80;99.90;;;;;;4998503;28;20073;-53
2024/01/01 03:33:40;;;;;;;184.90;80.18;;;5.90;99.90;;;;;;4997298;28;20033;-53
2024/01/01 03:36:06;;;;;;;241.00;97.80;;;5.90;99.90;;;;;;4997146;28;20037;-53
2024/01/01 03:38:32;;;;;;;169.45;76.70;;;5.80;99.90;;;;;;4998402;28;20034;-53
2024/01/01 03:40:58;;;;;;;154.07;70.55;;;5.80;99.90;;;;;;4998369;28;20037;-53
2024/01/01 03:43:24;;;;;;;126.05;60.25;;;5.80;99.90;;;;;;4997037;28;20046;-53
2024/01/01 03:45:50;;;;;;;115.75;59.58;;;5.80;99.90;;;;;;4996947;28;20073;-53
2024/01/01 03:48:16;;;;;;;149.63;68.63;;;5.90;99.90;;;;;;4996932;28;20030;-53
2024/01/01 03:50:41;;;;;;;155.77;70.15;;;5.90;99.90;;;;;;4996960;28;20076;-53
2024/01/01 03:53:07;;;;;;;138.02;64.97;;;5.90;99.90;;;;;;4997999;28;20018;-53
2024/01/01 03:55:33;;;;;;;145.95;65.90;;;5.90;99.90;;;;;;4998166;28;20030;-53
2024/01/01 03:57:59;;;;;;;156.02;69.85;;;5.80;99.90;;;;;;4996511;28;20118;-53
2024/01/01 04:00:26;;;;;;;140.45;63.13;;;5.90;99.90;;;;;;4998046;28;20129;-53
2024/01/01 04:02:52;;;;;;;138.45;63.88;;;5.80;99.90;;;;;;4997951;28;20030;-53
2024/01/01 04:05:18;;;;;;;170.45;74.28;;;5.80;99.90;;;;;;4997951;28;20031;-53
2024/01/01 04:07:44;;;;;;;169.27;73.75;;;5.70;99.90;;;;;;4996633;28;20034;-53
2024/01/01 04:10:10;;;;;;;178.05;75.78;;;5.80;99.90;;;;;;4996607;28;20034;-53
2024/01/01 04:12:36;;;;;;;146.88;66.50;;;5.80;99.90;;;;;;4996341;28;20026;-53
2024/01/01 04:15:03;;;;;;;131.20;62.53;;;5.80;99.90;;;;;;4996542;28;20436;-53
2024/01/01 04:17:31;;;;;;;140.38;63.97;;;5.90;99.90;;;;;;4997490;28;20065;-53
2024/01/01 04:19:57;;;;;;;137.75;63.35;;;5.80;99.90;;;;;;4997739;28;20471;-53
2024/01/01 04:22:23;;;;;;;132.77;59.40;;;5.90;99.90;;;;;;4997701;28;20073;-53
2024/01/01 04:24:49;;;;;;;121.68;59.10;;;5.80;99.90;;;;;;4997570;28;20464;-53
2024/01/01 04:27:15;;;;;;;127.43;63.17;;;5.80;99.90;;;;;;4997522;28;20030;-53
2024/01/01 04:29:41;;;;;;;135.77;62.83;;;5.70;99.90;;;;;;4997276;28;20100;-53
2024/01/01 04:32:07;;;;;;;126.90;58.83;;;5.70;99.90;;;;;;4997449;28;20431;-53
2024/01/01 04:34:33;;;;;;;131.75;57.92;;;5.70;99.90;;;;;;4997446;28;20136;-53
2024/01/01 04:36:59;;;;;;;132.98;61.20;;;5.70;99.90;;;;;;4997168;28;20105;-53
2024/01/01 04:39:24;;;;;;;135.38;62.97;;;5.70;99.90;;;;;;4997319;28;20038;-53
2024/01/01 04:41:50;;;;;;;123.38;57.50;;;5.60;99.90;;;;;;4997306;28;20058;-53
2024/01/01 04:44:16;;;;;;;122.13;56.47;;;5.60;99.90;;;;;;4997179;28;20061;-53
2024/01/01 04:46:42;;;;;;;109.68;54.00;;;5.60;99.90;;;;;;4997098;28;20026;-53
2024/01/01 04:49:08;;;;;;;136.85;61.30;;;5.60;99.90;;;;;;4997159;28;20021;-53
2024/01/01 04:51:33;;;;;;;132.88;61.70;;;5.50;99.90;;;;;;4997066;28;20033;-53
2024/01/01 04:53:59;;;;;;;151.13;67.18;;;5.60;99.90;;;;;;4996840;28;20407;-53
2024/01/01 04:56:25;;;;;;;131.75;61.67;;;5.60;99.90;;;;;;4997054;28;20030;-53
2024/01/01 04:58:54;;;;;;;130.63;62.25;;;5.60;99.90;;;;;;4996961;28;20026;-53
2024/01/01 05:01:20;;;;;;;138.07;63.58;;;5.50;99.90;;;;;;4996894;28;20162;-53
2024/01/01 05:03:46;;;;;;;152.75;71.88;;;5.60;99.90;;;;;;4996846;28;20026;-53
2024/01/01 05:06:12;;;;;;;139.95;64.20;;;5.60;99.90;;;;;;4996650;28;20046;-53
2024/01/01 05:08:37;;;;;;;145.23;64.32;;;5.60;99.90;;;;;;4996387;28;20117;-53
2024/01/01 05:11:04;;;;;;;141.18;63.50;;;5.50;99.90;;;;;;4996520;28;20062;-53
2024/01/01 05:13:30;;;;;;;118.18;60.67;;;5.40;99.90;;;;;;4996681;28;20038;-53
2024/01/01 05:15:56;;;;;;;115.40;58.28;;;5.40;99.90;;;;;;4996413;28;20034;-54
2024/01/01 05:18:22;;;;;;;136.98;64.57;;;5.40;99.90;;;;;;4996606;28;20037;-53
2024/01/01 05:20:48;;;;;;;134.88;60.60;;;5.30;99.90;;;;;;4996599;28;20097;-53
2024/01/01 05:23:14;;;;;;;135.68;62.75;;;5.40;99.90;;;;;;4996635;28;20037;-53
2024/01/01 05:25:40;;;;;;;139.95;67.65;;;5.30;99.90;;;;;;4996353;28;20042;-53
2024/01/01 05:28:08;;;;;;;134.52;63.88;;;5.30;99.90;;;;;;4996306;28;20050;-53
2024/01/01 05:30:37;;;;;;;116.25;56.45;;;5.30;99.90;;;;;;4996362;28;20045;-53
2024/01/01 05:33:03;;;;;;;119.03;55.88;;;5.10;99.90;;;;;;4996500;28;20026;-52
2024/01/01 05:35:29;;;;;;;101.30;50.67;;;5.00;99.90;;;;;;4996364;28;20088;-53
2024/01/01 05:37:55;;;;;;;122.25;57.03;;;5.00;99.90;;;;;;4996252;28;20065;-53
2024/01/01 05:40:21;;;;;;;121.75;58.80;;;4.90;99.90;;;;;;4996231;28;20026;-53
2024/01/01 05:42:47;;;;;;;134.18;64.88;;;4.90;99.90;;;;;;4996188;28;20034;-53
2024/01/01 05:45:13;;;;;;;122.78;59.53;;;4.90;99.90;;;;;;4996055;28;20092;-53
2024/01/01 05:47:39;;;;;;;143.05;65.85;;;4.90;99.90;;;;;;4996240;28;20026;-53
2024/01/01 05:50:05;;;;;;;127.50;60.97;;;5.00;99.90;;;;;;4996247;28;20026;-53
2024/01/01 05:52:31;;;;;;;115.47;56.60;;;5.00;99.90;;;;;;4996148;28;20168;-53
2024/01/01 05:54:57;;;;;;;123.82;60.50;;;5.00;99.90;;;;;;4996021;28;20057;-53
2024/01/01 05:57:22;;;;;;;117.30;57.10;;;5.00;99.90;;;;;;4996205;28;20038;-53
2024/01/01 05:59:48;;;;;;;119.90;58.25;;;5.00;99.90;;;;;;4996121;28;20114;-53
2024/01/01 06:02:14;;;;;;;116.95;57.92;;;5.00;99.90;;;;;;4996109;28;20109;-53
2024/01/01 06:04:40;;;;;;;116.85;56.85;;;5.00;99.90;;;;;;4994797;28;20105;-53
2024/01/01 06:07:06;;;;;;;124.03;58.42;;;5.00;99.90;;;;;;4996040;28;20117;-53
2024/01/01 06:09:34;;;;;;;121.25;58.85;;;5.00;99.90;;;;;;4995958;28;20138;-52
2024/01/01 06:12:00;;;;;;;132.15;61.72;;;5.00;99.90;;;;;;4995837;28;20110;-53
2024/01/01 06:14:26;;;;;;;117.55;57.60;;;5.00;99.90;;;;;;4995925;28;20384;-53
2024/01/01 06:16:52;;;;;;;119.13;57.63;;;4.90;99.90;;;;;;4995721;28;20050;-53
2024/01/01 06:19:18;;;;;;;117.85;57.92;;;4.90;99.90;;;;;;4995991;28;20023;-52
2024/01/01 06:21:44;;;;;;;116.72;58.28;;;4.80;99.90;;;;;;4998910;28;20030;-53
2024/01/01 06:24:09;;;;;;;111.18;54.08;;;4.70;99.90;;;;;;4999450;28;20136;-53
2024/01/01 06:26:35;;;;;;;106.45;52.50;;;4.60;99.90;;;;;;4999796;28;20423;-53
2024/01/01 06:29:01;;;;;;;105.43;52.42;;;4.60;99.90;;;;;;4999737;28;20096;-53
2024/01/01 06:31:27;;;;;;;110.22;55.38;;;4.60;99.90;;;;;;4999713;28;20431;-53
2024/01/01 06:33:53;;;;;;;117.55;56.13;;;4.60;99.90;;;;;;4999746;28;20033;-53
2024/01/01 06:36:19;;;;;;;107.28;54.78;;;4.70;99.90;;;;;;4999522;28;20026;-53
2024/01/01 06:38:44;;;;;;;107.18;53.45;;;4.80;99.90;;;;;;4999907;28;20069;-53
2024/01/01 06:41:10;;;;;;;117.03;54.65;;;4.80;99.90;;;;;;4999494;28;20023;-53
2024/01/01 06:43:36;;;;;;;107.80;51.38;;;4.90;99.90;;;;;;4999483;28;20034;-53
2024/01/01 06:46:03;;;;;;;103.18;49.22;;;5.00;99.90;;;;;;4999373;28;20034;-53
2024/01/01 06:48:29;;;;;;;98.30;48.35;;;5.10;99.90;;;;;;4999378;28;20160;-53
2024/01/01 06:50:55;;;;;;;132.02;59.92;;;5.10;99.90;;;;;;4999454;28;20046;-53
2024/01/01 06:53:21;;;;;;;113.45;53.95;;;5.20;99.90;;;;;;4999046;28;20030;-53
2024/01/01 06:55:46;;;;;;;92.68;45.28;;;5.30;99.90;;;;;;4999498;28;20041;-53
2024/01/01 06:58:12;;;;;;;59.40;31.20;;;5.60;99.90;;;;;;4999473;28;20034;-52
2024/01/01 07:00:38;;;;;;;49.22;24.50;;;6.10;99.90;;;;;;4999283;28;20022;-53
2024/01/01 07:03:04;;;;;;;58.72;29.95;;;6.40;99.90;;;;;;4999108;28;20038;-53
2024/01/01 07:05:30;;;;;;;68.50;35.47;;;6.50;99.90;;;;;;4999005;28;20456;-53
2024/01/01 07:07:56;;;;;;;70.40;36.92;;;6.50;99.90;;;;;;4998804;28;20061;-53
2024/01/01 07:10:22;;;;;;;71.88;38.08;;;6.50;99.90;;;;;;4998923;28;20518;-52
2024/01/01 07:12:47;;;;;;;89.25;45.40;;;6.70;99.90;;;;;;4999004;28;20488;-53
2024/01/01 07:15:13;;;;;;;92.90;47.08;;;6.80;99.90;;;;;;4998935;28;20031;-53
2024/01/01 07:17:39;;;;;;;74.63;40.40;;;7.00;99.90;;;;;;4998671;28;20045;-53
2024/01/01 07:20:06;;;;;;;77.30;40.33;;;7.40;99.90;;;;;;4998887;28;20113;-53
2024/01/01 07:22:32;;;;;;;74.75;38.83;;;7.90;99.90;;;;;;4998714;28;20034;-53
2024/01/01 07:24:58;;;;;;;76.03;39.40;;;8.20;99.90;;;;;;4998582;28;20053;-53
2024/01/01 07:27:24;;;;;;;63.97;36.58;;;8.90;99.90;;;;;;4998647;28;20026;-53
2024/01/01 07:29:49;;;;;;;60.72;33.03;;;9.80;99.90;;;;;;4998622;28;20026;-53
2024/01/01 07:32:15;;;;;;;58.95;33.25;;;10.80;99.90;;;;;;4997936;28;20030;-53
2024/01/01 07:34:41;;;;;;;57.72;31.00;;;11.80;99.90;;;;;;4998570;28;20031;-53
2024/01/01 07:37:07;;;;;;;60.85;35.05;;;12.90;96.10;;;;;;4998179;28;20042;-53
2024/01/01 07:39:33;;;;;;;62.88;34.60;;;12.90;93.90;;;;;;4998453;28;20061;-53
2024/01/01 07:41:59;;;;;;;59.35;33.78;;;12.80;93.50;;;;;;4998407;28;20026;-53
2024/01/01 07:44:25;;;;;;;68.30;34.80;;;12.50;93.70;;;;;;4998272;28;20030;-53
2024/01/01 07:46:51;;;;;;;68.63;37.35;;;12.20;94.10;;;;;;4998345;28;20030;-53
2024/01/01 07:49:17;;;;;;;72.53;37.17;;;12.00;94.30;;;;;;4998399;28;20026;-53
2024/01/01 07:51:43;;;;;;;71.07;37.10;;;11.80;94.60;;;;;;4998042;28;20026;-54
2024/01/01 07:54:10;;;;;;;83.43;40.67;;;11.70;95.10;;;;;;4998080;28;20394;-53
2024/01/01 07:56:43;;;;;;;75.38;40.28;;;11.30;95.70;;;;;;4998156;28;20461;-53
2024/01/01 07:59:10;;;;;;;84.47;41.63;;;11.10;96.20;;;;;;4998203;28;20030;-53
2024/01/01 08:01:36;;;;;;;86.57;44.10;;;10.80;97.00;;;;;;4998069;28;20105;-53
2024/01/01 08:04:02;;;;;;;88.30;43.47;;;10.50;97.10;;;;;;4997960;28;20061;-53
2024/01/01 08:06:28;;;;;;;79.30;41.17;;;10.50;97.80;;;;;;4997778;28;20042;-53
2024/01/01 08:08:54;;;;;;;79.65;41.70;;;10.30;97.60;;;;;;4998168;28;20136;-53
2024/01/01 08:11:20;;;;;;;86.40;43.72;;;10.20;98.20;;;;;;4997831;28;20026;-53
2024/01/01 08:13:46;;;;;;;81.75;43.05;;;10.20;98.50;;;;;;4997809;28;20026;-53
2024/01/01 08:16:12;;;;;;;82.20;42.78;;;10.10;99.00;;;;;;4997673;28;20428;-53
2024/01/01 08:18:38;;;;;;;90.35;45.00;;;10.00;99.70;;;;;;4997306;28;20121;-53
2024/01/01 08:21:04;;;;;;;88.43;45.00;;;9.80;99.90;;;;;;4997686;28;20081;-53
2024/01/01 08:23:31;;;;;;;97.13;48.80;;;9.90;99.90;;;;;;4997531;28;20038;-53
2024/01/01 08:25:57;;;;;;;94.18;48.58;;;9.90;99.90;;;;;;4997550;28;20053;-53
2024/01/01 08:28:22;;;;;;;92.10;46.85;;;9.70;99.90;;;;;;4997465;28;20479;-53
2024/01/01 08:30:48;;;;;;;93.40;49.17;;;9.60;99.90;;;;;;4997537;28;20034;-53
2024/01/01 08:33:14;;;;;;;87.82;47.05;;;9.40;99.90;;;;;;4997419;28;20029;-53
2024/01/01 08:35:40;;;;;;;86.28;45.97;;;9.50;99.90;;;;;;4997432;28;20033;-53
2024/01/01 08:38:06;;;;;;;86.47;46.83;;;9.60;99.90;;;;;;4997156;28;20050;-53
2024/01/01 08:40:32;;;;;;;90.72;45.50;;;9.80;99.90;;;;;;4997225;28;20041;-53
2024/01/01 08:42:58;;;;;;;88.70;44.80;;;9.90;99.90;;;;;;4997198;28;20023;-53
2024/01/01 08:45:23;;;;;;;79.78;42.97;;;10.60;99.90;;;;;;4996176;28;20562;-53
2024/01/01 08:47:49;;;;;;;70.20;41.00;;;11.90;99.60;;;;;;4997217;28;20121;-53
2024/01/01 08:50:15;;;;;;;66.40;38.45;;;13.40;95.20;;;;;;4997083;28;20023;-53
2024/01/01 08:52:44;;;;;;;68.85;40.83;;;14.50;92.40;;;;;;4996788;28;20036;-53
2024/01/01 08:55:10;;;;;;;60.25;36.13;;;15.30;89.40;;;;;;4997107;28;20076;-53
2024/01/01 08:57:36;;;;;;;61.03;36.67;;;16.10;86.50;;;;;;4996934;28;20035;-53
2024/01/01 09:00:06;;;;;;;59.38;36.67;;;16.40;80.70;;;;;;4996934;28;20030;-53
2024/01/01 09:02:32;;;;;;;67.70;40.58;;;16.80;77.10;;;;;;4996742;28;20035;-53
2024/01/01 09:04:58;;;;;;;73.97;42.58;;;16.40;76.60;;;;;;4996663;28;20042;-53
2024/01/01 09:07:24;;;;;;;71.90;42.67;;;15.90;78.70;;;;;;4996784;28;20030;-53
2024/01/01 09:09:50;;;;;;;72.80;41.90;;;15.50;77.80;;;;;;4996787;28;20027;-53
2024/01/01 09:12:16;;;;;;;74.82;44.30;;;15.20;80.20;;;;;;4996798;28;20037;-53
2024/01/01 09:14:41;;;;;;;75.38;43.20;;;14.70;81.40;;;;;;4996708;28;20030;-53
2024/01/01 09:17:07;;;;;;;77.38;44.70;;;14.30;83.70;;;;;;4996258;28;20042;-53
2024/01/01 09:19:34;;;;;;;74.55;45.15;;;14.10;84.70;;;;;;4996520;28;20120;-53
2024/01/01 09:22:00;;;;;;;73.57;42.92;;;13.90;86.20;;;;;;4996549;28;20026;-53
2024/01/01 09:24:26;;;;;;;77.07;44.95;;;13.60;87.40;;;;;;4996446;28;20030;-53
2024/01/01 09:26:52;;;;;;;79.00;46.50;;;13.60;90.00;;;;;;4996610;28;20118;-53
2024/01/01 09:29:18;;;;;;;89.63;51.45;;;13.40;89.90;;;;;;4996454;28;20417;-53
2024/01/01 09:31:44;;;;;;;78.65;49.40;;;13.30;91.00;;;;;;4996374;28;20049;-53
2024/01/01 09:34:10;;;;;;;91.50;50.30;;;13.10;91.10;;;;;;4996280;28;20345;-53
2024/01/01 09:36:36;;;;;;;83.05;49.22;;;13.00;91.70;;;;;;4996261;28;20030;-53
2024/01/01 09:39:01;;;;;;;86.30;49.92;;;13.00;92.80;;;;;;4996315;28;20538;-53
2024/01/01 09:41:27;;;;;;;91.38;52.22;;;12.90;92.60;;;;;;4996252;28;20031;-53
2024/01/01 09:43:53;;;;;;;200.27;91.85;;;12.70;93.30;;;;;;4996259;28;20534;-53
2024/01/01 09:46:20;;;;;;;156.15;79.70;;;12.80;93.90;;;;;;4996053;28;20038;-53
2024/01/01 09:48:46;;;;;;;85.82;45.00;;;12.70;93.40;;;;;;4996138;28;20053;-53
2024/01/01 09:51:13;;;;;;;66.65;39.33;;;12.60;92.80;;;;;;4996202;28;20041;-53
2024/01/01 09:53:39;;;;;;;68.53;38.65;;;12.50;93.00;;;;;;4995979;28;20031;-53
2024/01/01 09:56:06;;;;;;;76.03;44.28;;;12.20;93.50;;;;;;4995827;28;20077;-53
2024/01/01 09:58:45;;;;;;;72.32;35.45;;;12.20;94.00;;;;;;4996089;28;20384;-53
2024/01/01 10:01:21;;;;;;;25.25;16.65;;;12.10;95.00;;;;;;4996041;28;20026;-53
2024/01/01 10:04:03;;;;;;;16.85;10.60;;;12.10;95.40;;;;;;4996113;28;20133;-53
2024/01/01 10:06:29;;;;;;;23.35;15.45;;;11.90;96.30;;;;;;4995908;28;20042;-53
2024/01/01 10:09:10;;;;;;;20.13;13.30;;;11.70;97.30;;;;;;4996046;28;20035;-53
2024/01/01 10:11:41;;;;;;;10.30;5.40;;;11.20;99.20;;;;;;4996379;28;20030;-53
2024/01/01 10:14:07;;;;;;;11.13;5.65;;;10.90;99.90;;;;;;4995897;28;20031;-53
2024/01/01 10:16:34;;;;;;;8.88;3.30;;;10.50;99.90;;;;;;4995897;28;20042;-53
2024/01/01 10:19:01;;;;;;;7.13;4.00;;;10.10;99.90;;;;;;4995927;28;20400;-53
2024/01/01 10:21:37;;;;;;;5.07;2.30;;;9.90;99.90;;;;;;4996032;28;20059;-53
2024/01/01 10:24:17;;;;;;;2.92;1.35;;;9.60;99.90;;;;;;4995976;28;20076;-53
2024/01/01 10:26:45;;;;;;;2.55;1.13;;;9.30;99.90;;;;;;4995816;28;20035;-53
2024/01/01 10:29:12;;;;;;;10.75;6.00;;;9.00;99.90;;;;;;4995826;28;20076;-53
2024/01/01 10:31:50;;;;;;;8.38;2.60;;;8.80;99.90;;;;;;4995859;28;20081;-53
2024/01/01 10:34:18;;;;;;;6.13;3.17;;;8.60;99.90;;;;;;4995827;28;20037;-53
2024/01/01 10:36:44;;;;;;;5.68;2.05;;;8.40;99.90;;;;;;4995707;28;20498;-53
2024/01/01 10:39:12;;;;;;;2.55;1.80;;;8.30;99.90;;;;;;4995841;28;20468;-53
2024/01/01 10:41:39;;;;;;;2.80;1.42;;;8.20;99.90;;;;;;4995725;28;20038;-53
2024/01/01 10:44:09;;;;;;;8.20;4.43;;;8.30;99.90;;;;;;4995735;28;20498;-53
2024/01/01 10:47:05;;;;;;;3.55;1.88;;;8.30;99.90;;;;;;4995826;28;20480;-53
2024/01/01 10:49:31;;;;;;;5.10;2.17;;;8.30;99.90;;;;;;4995505;28;20044;-53
2024/01/01 10:52:13;;;;;;;10.73;3.08;;;8.10;99.90;;;;;;4995591;28;20085;-53
2024/01/01 10:55:11;;;;;;;7.70;3.63;;;8.20;99.90;;;;;;4995616;28;20038;-53
2024/01/01 10:58:12;;;;;;;4.95;2.35;;;8.10;99.90;;;;;;4995801;28;20145;-53
2024/01/01 11:01:08;;;;;;;3.88;1.95;;;8.00;99.90;;;;;;4995670;28;20472;-53
2024/01/01 11:03:35;;;;;;;6.18;2.50;;;8.00;99.90;;;;;;4995556;28;20099;-53
2024/01/01 11:06:21;;;;;;;17.40;5.30;;;7.90;99.90;;;;;;4995284;28;20038;-53
2024/01/01 11:08:47;;;;;;;24.33;7.55;;;7.80;99.90;;;;;;4998282;28;20026;-53
2024/01/01 11:11:31;;;;;;;14.73;5.28;;;7.70;99.90;;;;;;4999109;28;20045;-53
2024/01/01 11:13:57;;;;;;;15.70;6.90;;;7.70;99.90;;;;;;4998957;28;20109;-53
2024/01/01 11:16:24;;;;;;;9.15;4.18;;;7.50;99.90;;;;;;4998726;28;20030;-53
2024/01/01 11:18:51;;;;;;;7.57;3.70;;;7.50;99.90;;;;;;4998844;28;20034;-53
2024/01/01 11:21:31;;;;;;;11.55;4.28;;;7.50;99.90;;;;;;4998690;28;20026;-53
2024/01/01 11:24:01;;;;;;;11.57;4.03;;;7.40;99.90;;;;;;4998762;28;20468;-53
2024/01/01 11:26:34;;;;;;;7.13;3.63;;;7.30;99.90;;;;;;4998647;28;20030;-53
2024/01/01 11:29:02;;;;;;;12.02;3.70;;;7.30;99.90;;;;;;4998713;28;20041;-53
2024/01/01 11:31:30;;;;;;;11.23;3.65;;;7.30;99.90;;;;;;4998656;28;20018;-53
2024/01/01 11:34:00;;;;;;;15.25;5.93;;;7.30;99.90;;;;;;4998666;28;20026;-53
2024/01/01 11:36:26;;;;;;;17.77;7.05;;;7.20;99.90;;;;;;4998388;28;20347;-53
2024/01/01 11:38:53;;;;;;;14.70;7.22;;;7.20;99.90;;;;;;4998457;28;20030;-53
2024/01/01 11:41:26;;;;;;;12.32;7.45;;;7.30;99.90;;;;;;4998431;28;20030;-53
2024/01/01 11:43:52;;;;;;;15.70;7.30;;;7.20;99.90;;;;;;4998441;28;20050;-53
2024/01/01 11:46:28;;;;;;;14.32;7.35;;;7.20;99.90;;;;;;4998287;28;20105;-53
2024/01/01 11:48:55;;;;;;;15.55;7.70;;;7.20;99.90;;;;;;4998366;28;20072;-53
2024/01/01 11:51:21;;;;;;;15.25;8.57;;;7.20;99.90;;;;;;4998257;28;20030;-53
2024/01/01 11:53:47;;;;;;;25.00;11.05;;;7.30;99.90;;;;;;4998201;28;20023;-53
2024/01/01 11:56:13;;;;;;;18.85;9.07;;;7.20;99.90;;;;;;4998247;28;20026;-53
2024/01/01 11:58:39;;;;;;;15.02;7.70;;;7.10;99.90;;;;;;4998370;28;20034;-53
2024/01/01 12:01:05;;;;;;;15.57;8.30;;;7.20;99.90;;;;;;4998141;28;20027;-53
2024/01/01 12:03:33;;;;;;;16.10;8.68;;;7.20;99.90;;;;;;4998097;28;20104;-53
2024/01/01 12:06:03;;;;;;;12.48;6.50;;;7.20;99.90;;;;;;4998000;28;20471;-53
2024/01/01 12:08:29;;;;;;;8.57;4.97;;;7.00;99.90;;;;;;4997958;28;20101;-53
2024/01/01 12:10:59;;;;;;;13.57;7.20;;;7.10;99.90;;;;;;4997775;28;20272;-53
2024/01/01 12:13:25;;;;;;;16.17;6.97;;;7.10;99.90;;;;;;4997765;28;20032;-53
2024/01/01 12:15:53;;;;;;;11.65;5.28;;;7.20;99.90;;;;;;4997823;28;20027;-53
2024/01/01 12:18:19;;;;;;;16.52;6.30;;;7.10;99.90;;;;;;4997448;28;20038;-53
2024/01/01 12:20:45;;;;;;;11.98;3.90;;;7.00;99.90;;;;;;4997615;28;20121;-53
2024/01/01 12:23:12;;;;;;;5.93;3.05;;;6.90;99.90;;;;;;4997566;28;20038;-53
2024/01/01 12:25:38;;;;;;;10.77;3.33;;;6.90;99.90;;;;;;4997598;28;20041;-53
2024/01/01 12:28:05;;;;;;;9.70;3.97;;;6.90;99.90;;;;;;4997401;28;20380;-53
2024/01/01 12:30:36;;;;;;;9.93;3.60;;;7.00;99.90;;;;;;4997483;28;20033;-53